sensor_id;sensor_type;location;lat;lon;timestamp;temperature;humidity
9564;DHT22;4820;50.870;4.702;2024-02-16T00:00:12;13.90;99.90
9564;DHT22;4820;50.870;4.702;2024-02-16T00:02:40;13.90;99.90
9564;DHT22;4820;50.870;4.702;2024-02-16T00:05:25;13.90;99.90
9564;DHT22;4820;50.870;4.702;2024-02-16T00:07:50;14.00;99.90
9564;DHT22;4820;50.870;4.702;2024-02-16T00:10:16;14.10;99.90
9564;DHT22;4820;50.870;4.702;2024-02-16T00:12:44;14.10;99.90
9564;DHT22;4820;50.870;4.702;2024-02-16T00:15:10;14.10;99.90
9564;DHT22;4820;50.870;4.702;2024-02-16T00:17:36;14.10;99.90
9564;DHT22;4820;50.870;4.702;2024-02-16T00:20:03;14.10;99.90
9564;DHT22;4820;50.870;4.702;2024-02-16T00:22:29;14.10;99.90
9564;DHT22;4820;50.870;4.702;2024-02-16T00:25:14;14.10;99.90
9564;DHT22;4820;50.870;4.702;2024-02-16T00:27:40;14.10;99.90
9564;DHT22;4820;50.870;4.702;2024-02-16T00:32:52;14.00;99.90
9564;DHT22;4820;50.870;4.702;2024-02-16T00:35:20;14.00;99.90
9564;DHT22;4820;50.870;4.702;2024-02-16T00:37:45;14.00;99.90
9564;DHT22;4820;50.870;4.702;2024-02-16T00:40:12;14.00;99.90
9564;DHT22;4820;50.870;4.702;2024-02-16T00:42:38;14.00;99.90
9564;DHT22;4820;50.870;4.702;2024-02-16T00:45:04;14.00;99.90
9564;DHT22;4820;50.870;4.702;2024-02-16T00:47:30;14.00;99.90
9564;DHT22;4820;50.870;4.702;2024-02-16T00:49:55;14.00;99.90
9564;DHT22;4820;50.870;4.702;2024-02-16T00:52:22;14.10;99.90
9564;DHT22;4820;50.870;4.702;2024-02-16T00:54:48;14.00;99.90
9564;DHT22;4820;50.870;4.702;2024-02-16T00:57:33;13.90;99.90
9564;DHT22;4820;50.870;4.702;2024-02-16T01:00:19;13.90;99.90
9564;DHT22;4820;50.870;4.702;2024-02-16T01:02:45;13.80;99.90
9564;DHT22;4820;50.870;4.702;2024-02-16T01:05:11;13.80;99.90
9564;DHT22;4820;50.870;4.702;2024-02-16T01:07:37;13.70;99.90
9564;DHT22;4820;50.870;4.702;2024-02-16T01:10:05;13.70;99.90
9564;DHT22;4820;50.870;4.702;2024-02-16T01:12:30;13.60;99.90
9564;DHT22;4820;50.870;4.702;2024-02-16T01:14:57;13.60;99.90
9564;DHT22;4820;50.870;4.702;2024-02-16T01:17:22;13.50;99.90
9564;DHT22;4820;50.870;4.702;2024-02-16T01:20:07;13.50;99.90
9564;DHT22;4820;50.870;4.702;2024-02-16T01:22:36;13.50;99.90
9564;DHT22;4820;50.870;4.702;2024-02-16T01:25:01;13.40;99.90
9564;DHT22;4820;50.870;4.702;2024-02-16T01:27:27;13.40;99.90
9564;DHT22;4820;50.870;4.702;2024-02-16T01:29:53;13.40;99.90
9564;DHT22;4820;50.870;4.702;2024-02-16T01:32:37;13.40;99.90
9564;DHT22;4820;50.870;4.702;2024-02-16T01:35:40;13.40;99.90
9564;DHT22;4820;50.870;4.702;2024-02-16T01:38:24;13.50;99.90
9564;DHT22;4820;50.870;4.702;2024-02-16T01:40:49;13.60;99.90
9564;DHT22;4820;50.870;4.702;2024-02-16T01:43:19;13.70;99.90
9564;DHT22;4820;50.870;4.702;2024-02-16T01:45:45;13.90;99.90
9564;DHT22;4820;50.870;4.702;2024-02-16T01:48:11;13.90;99.90
9564;DHT22;4820;50.870;4.702;2024-02-16T01:53:22;14.00;99.90
9564;DHT22;4820;50.870;4.702;2024-02-16T01:56:07;13.90;99.90
9564;DHT22;4820;50.870;4.702;2024-02-16T01:58:33;13.90;99.90
9564;DHT22;4820;50.870;4.702;2024-02-16T02:00:59;14.00;99.90
9564;DHT22;4820;50.870;4.702;2024-02-16T02:03:25;14.00;99.90
9564;DHT22;4820;50.870;4.702;2024-02-16T02:05:52;13.90;99.90
9564;DHT22;4820;50.870;4.702;2024-02-16T02:08:20;13.90;99.90
9564;DHT22;4820;50.870;4.702;2024-02-16T02:10:45;14.00;99.90
9564;DHT22;4820;50.870;4.702;2024-02-16T02:13:29;14.00;99.90
9564;DHT22;4820;50.870;4.702;2024-02-16T02:16:21;14.10;99.90
9564;DHT22;4820;50.870;4.702;2024-02-16T02:18:48;14.10;99.90
9564;DHT22;4820;50.870;4.702;2024-02-16T02:21:32;14.00;99.90
9564;DHT22;4820;50.870;4.702;2024-02-16T02:24:16;14.10;99.90
9564;DHT22;4820;50.870;4.702;2024-02-16T02:26:42;14.10;99.90
9564;DHT22;4820;50.870;4.702;2024-02-16T02:29:08;14.10;99.90
9564;DHT22;4820;50.870;4.702;2024-02-16T02:31:34;14.00;99.90
9564;DHT22;4820;50.870;4.702;2024-02-16T02:34:00;14.10;99.90
9564;DHT22;4820;50.870;4.702;2024-02-16T02:39:30;14.00;99.90
9564;DHT22;4820;50.870;4.702;2024-02-16T02:41:56;13.90;99.90
9564;DHT22;4820;50.870;4.702;2024-02-16T02:44:40;13.90;99.90
9564;DHT22;4820;50.870;4.702;2024-02-16T02:47:07;13.90;99.90
9564;DHT22;4820;50.870;4.702;2024-02-16T02:49:33;13.80;99.90
9564;DHT22;4820;50.870;4.702;2024-02-16T02:52:36;13.70;99.90
9564;DHT22;4820;50.870;4.702;2024-02-16T02:55:02;13.70;99.90
9564;DHT22;4820;50.870;4.702;2024-02-16T02:57:27;13.70;99.90
9564;DHT22;4820;50.870;4.702;2024-02-16T02:59:53;13.70;99.90
9564;DHT22;4820;50.870;4.702;2024-02-16T03:02:37;13.70;99.90
9564;DHT22;4820;50.870;4.702;2024-02-16T03:05:05;13.90;99.90
9564;DHT22;4820;50.870;4.702;2024-02-16T03:07:33;13.90;99.90
9564;DHT22;4820;50.870;4.702;2024-02-16T03:09:58;14.00;99.90
9564;DHT22;4820;50.870;4.702;2024-02-16T03:12:24;14.00;99.90
9564;DHT22;4820;50.870;4.702;2024-02-16T03:14:50;14.00;99.90
9564;DHT22;4820;50.870;4.702;2024-02-16T03:17:16;14.00;99.90
9564;DHT22;4820;50.870;4.702;2024-02-16T03:19:41;14.00;99.90
9564;DHT22;4820;50.870;4.702;2024-02-16T03:22:26;14.10;99.90
9564;DHT22;4820;50.870;4.702;2024-02-16T03:24:51;14.20;99.90
9564;DHT22;4820;50.870;4.702;2024-02-16T03:27:36;14.30;99.90
9564;DHT22;4820;50.870;4.702;2024-02-16T03:30:02;14.30;99.90
9564;DHT22;4820;50.870;4.702;2024-02-16T03:32:28;14.30;99.90
9564;DHT22;4820;50.870;4.702;2024-02-16T03:34:57;14.30;99.90
9564;DHT22;4820;50.870;4.702;2024-02-16T03:37:23;14.30;99.90
9564;DHT22;4820;50.870;4.702;2024-02-16T03:39:48;14.40;99.90
9564;DHT22;4820;50.870;4.702;2024-02-16T03:42:14;14.40;99.90
9564;DHT22;4820;50.870;4.702;2024-02-16T03:44:40;14.40;99.90
9564;DHT22;4820;50.870;4.702;2024-02-16T03:47:06;14.40;99.90
9564;DHT22;4820;50.870;4.702;2024-02-16T03:49:52;14.40;99.90
9564;DHT22;4820;50.870;4.702;2024-02-16T03:52:18;14.40;99.90
9564;DHT22;4820;50.870;4.702;2024-02-16T03:54:44;14.40;99.90
9564;DHT22;4820;50.870;4.702;2024-02-16T03:57:14;14.50;99.90
9564;DHT22;4820;50.870;4.702;2024-02-16T03:59:42;14.50;99.90
9564;DHT22;4820;50.870;4.702;2024-02-16T04:02:09;14.50;99.90
9564;DHT22;4820;50.870;4.702;2024-02-16T04:04:35;14.50;99.90
9564;DHT22;4820;50.870;4.702;2024-02-16T04:07:01;14.50;99.90
9564;DHT22;4820;50.870;4.702;2024-02-16T04:09:27;14.50;99.90
9564;DHT22;4820;50.870;4.702;2024-02-16T04:12:11;14.60;99.90
9564;DHT22;4820;50.870;4.702;2024-02-16T04:14:37;14.60;99.90
9564;DHT22;4820;50.870;4.702;2024-02-16T04:17:40;14.60;99.90
9564;DHT22;4820;50.870;4.702;2024-02-16T04:20:06;14.70;99.90
9564;DHT22;4820;50.870;4.702;2024-02-16T04:22:32;14.60;99.90
9564;DHT22;4820;50.870;4.702;2024-02-16T04:25:05;14.60;99.90
9564;DHT22;4820;50.870;4.702;2024-02-16T04:27:31;14.60;99.90
9564;DHT22;4820;50.870;4.702;2024-02-16T04:30:15;14.60;99.90
9564;DHT22;4820;50.870;4.702;2024-02-16T04:32:59;14.70;99.90
9564;DHT22;4820;50.870;4.702;2024-02-16T04:35:25;14.70;99.90
9564;DHT22;4820;50.870;4.702;2024-02-16T04:37:51;14.60;99.90
9564;DHT22;4820;50.870;4.702;2024-02-16T04:40:36;14.60;99.90
9564;DHT22;4820;50.870;4.702;2024-02-16T04:43:02;14.60;99.90
9564;DHT22;4820;50.870;4.702;2024-02-16T04:45:28;14.60;99.90
9564;DHT22;4820;50.870;4.702;2024-02-16T04:47:55;14.60;99.90
9564;DHT22;4820;50.870;4.702;2024-02-16T04:50:21;14.60;99.90
9564;DHT22;4820;50.870;4.702;2024-02-16T04:52:47;14.60;99.90
9564;DHT22;4820;50.870;4.702;2024-02-16T04:55:13;14.60;99.90
9564;DHT22;4820;50.870;4.702;2024-02-16T04:57:38;14.70;99.90
9564;DHT22;4820;50.870;4.702;2024-02-16T05:00:05;14.70;99.90
9564;DHT22;4820;50.870;4.702;2024-02-16T05:02:33;14.60;99.90
9564;DHT22;4820;50.870;4.702;2024-02-16T05:04:58;14.60;99.90
9564;DHT22;4820;50.870;4.702;2024-02-16T05:07:24;14.60;99.90
9564;DHT22;4820;50.870;4.702;2024-02-16T05:09:50;14.60;99.90
9564;DHT22;4820;50.870;4.702;2024-02-16T05:12:15;14.60;99.90
9564;DHT22;4820;50.870;4.702;2024-02-16T05:14:48;14.50;99.90
9564;DHT22;4820;50.870;4.702;2024-02-16T05:17:33;14.50;99.90
9564;DHT22;4820;50.870;4.702;2024-02-16T05:19:59;14.50;99.90
9564;DHT22;4820;50.870;4.702;2024-02-16T05:22:24;14.50;99.90
9564;DHT22;4820;50.870;4.702;2024-02-16T05:24:50;14.50;99.90
9564;DHT22;4820;50.870;4.702;2024-02-16T05:27:17;14.50;99.90
9564;DHT22;4820;50.870;4.702;2024-02-16T05:29:42;14.40;99.90
9564;DHT22;4820;50.870;4.702;2024-02-16T05:32:09;14.40;99.90
9564;DHT22;4820;50.870;4.702;2024-02-16T05:34:36;14.50;99.90
9564;DHT22;4820;50.870;4.702;2024-02-16T05:39:48;14.50;99.90
9564;DHT22;4820;50.870;4.702;2024-02-16T05:42:33;14.50;99.90
9564;DHT22;4820;50.870;4.702;2024-02-16T05:45:00;14.50;99.90
9564;DHT22;4820;50.870;4.702;2024-02-16T05:47:27;14.50;99.90
9564;DHT22;4820;50.870;4.702;2024-02-16T05:50:30;14.50;99.90
9564;DHT22;4820;50.870;4.702;2024-02-16T05:52:56;14.50;99.90
9564;DHT22;4820;50.870;4.702;2024-02-16T05:55:22;14.50;99.90
9564;DHT22;4820;50.870;4.702;2024-02-16T05:57:49;14.50;99.90
9564;DHT22;4820;50.870;4.702;2024-02-16T06:00:35;14.40;99.90
9564;DHT22;4820;50.870;4.702;2024-02-16T06:03:00;14.40;99.90
9564;DHT22;4820;50.870;4.702;2024-02-16T06:08:11;14.40;99.90
9564;DHT22;4820;50.870;4.702;2024-02-16T06:13:21;14.50;99.90
9564;DHT22;4820;50.870;4.702;2024-02-16T06:15:47;14.50;99.90
9564;DHT22;4820;50.870;4.702;2024-02-16T06:18:13;14.50;99.90
9564;DHT22;4820;50.870;4.702;2024-02-16T06:20:39;14.50;99.90
9564;DHT22;4820;50.870;4.702;2024-02-16T06:23:04;14.50;99.90
9564;DHT22;4820;50.870;4.702;2024-02-16T06:25:30;14.50;99.90
9564;DHT22;4820;50.870;4.702;2024-02-16T06:27:56;14.50;99.90
9564;DHT22;4820;50.870;4.702;2024-02-16T06:30:22;14.50;99.90
9564;DHT22;4820;50.870;4.702;2024-02-16T06:33:07;14.50;99.90
9564;DHT22;4820;50.870;4.702;2024-02-16T06:35:33;14.50;99.90
9564;DHT22;4820;50.870;4.702;2024-02-16T06:38:05;14.40;99.90
9564;DHT22;4820;50.870;4.702;2024-02-16T06:40:49;14.40;99.90
9564;DHT22;4820;50.870;4.702;2024-02-16T06:43:14;14.40;99.90
9564;DHT22;4820;50.870;4.702;2024-02-16T06:45:40;14.40;99.90
9564;DHT22;4820;50.870;4.702;2024-02-16T06:48:06;14.40;99.90
9564;DHT22;4820;50.870;4.702;2024-02-16T06:50:32;14.50;99.90
9564;DHT22;4820;50.870;4.702;2024-02-16T06:53:16;14.50;99.90
9564;DHT22;4820;50.870;4.702;2024-02-16T06:56:00;14.40;99.90
9564;DHT22;4820;50.870;4.702;2024-02-16T06:58:27;14.50;99.90
9564;DHT22;4820;50.870;4.702;2024-02-16T07:01:25;14.50;99.90
9564;DHT22;4820;50.870;4.702;2024-02-16T07:03:52;14.50;99.90
9564;DHT22;4820;50.870;4.702;2024-02-16T07:06:18;14.50;99.90
9564;DHT22;4820;50.870;4.702;2024-02-16T07:08:44;14.50;99.90
9564;DHT22;4820;50.870;4.702;2024-02-16T07:11:10;14.50;99.90
9564;DHT22;4820;50.870;4.702;2024-02-16T07:13:42;14.50;99.90
9564;DHT22;4820;50.870;4.702;2024-02-16T07:16:30;14.50;99.90
9564;DHT22;4820;50.870;4.702;2024-02-16T07:18:58;14.50;99.90
9564;DHT22;4820;50.870;4.702;2024-02-16T07:21:23;14.50;99.90
9564;DHT22;4820;50.870;4.702;2024-02-16T07:23:52;14.50;99.90
9564;DHT22;4820;50.870;4.702;2024-02-16T07:26:18;14.50;99.90
9564;DHT22;4820;50.870;4.702;2024-02-16T07:28:45;14.50;99.90
9564;DHT22;4820;50.870;4.702;2024-02-16T07:31:11;14.50;99.90
9564;DHT22;4820;50.870;4.702;2024-02-16T07:33:37;14.50;99.90
9564;DHT22;4820;50.870;4.702;2024-02-16T07:36:03;14.50;99.90
9564;DHT22;4820;50.870;4.702;2024-02-16T07:38:30;14.50;99.90
9564;DHT22;4820;50.870;4.702;2024-02-16T07:40:56;14.50;99.90
9564;DHT22;4820;50.870;4.702;2024-02-16T07:43:22;14.50;99.90
9564;DHT22;4820;50.870;4.702;2024-02-16T07:48:52;14.50;99.90
9564;DHT22;4820;50.870;4.702;2024-02-16T07:54:21;14.50;99.90
9564;DHT22;4820;50.870;4.702;2024-02-16T07:56:46;14.60;99.90
9564;DHT22;4820;50.870;4.702;2024-02-16T07:59:31;14.60;99.90
9564;DHT22;4820;50.870;4.702;2024-02-16T08:01:57;14.60;99.90
9564;DHT22;4820;50.870;4.702;2024-02-16T08:05:00;14.60;99.90
9564;DHT22;4820;50.870;4.702;2024-02-16T08:10:10;14.60;99.90
9564;DHT22;4820;50.870;4.702;2024-02-16T08:12:36;14.60;99.90
9564;DHT22;4820;50.870;4.702;2024-02-16T08:15:20;14.60;99.90
9564;DHT22;4820;50.870;4.702;2024-02-16T08:17:49;14.50;99.90
9564;DHT22;4820;50.870;4.702;2024-02-16T08:20:16;14.40;99.90
9564;DHT22;4820;50.870;4.702;2024-02-16T08:22:42;14.40;99.90
9564;DHT22;4820;50.870;4.702;2024-02-16T08:25:09;14.30;99.90
9564;DHT22;4820;50.870;4.702;2024-02-16T08:27:34;14.20;99.90
9564;DHT22;4820;50.870;4.702;2024-02-16T08:30:00;14.10;99.90
9564;DHT22;4820;50.870;4.702;2024-02-16T08:32:28;14.00;99.90
9564;DHT22;4820;50.870;4.702;2024-02-16T08:34:55;14.00;99.90
9564;DHT22;4820;50.870;4.702;2024-02-16T08:37:21;13.90;99.90
9564;DHT22;4820;50.870;4.702;2024-02-16T08:39:47;13.90;99.90
9564;DHT22;4820;50.870;4.702;2024-02-16T08:42:13;13.80;99.90
9564;DHT22;4820;50.870;4.702;2024-02-16T08:44:40;13.80;99.90
9564;DHT22;4820;50.870;4.702;2024-02-16T08:47:06;13.80;99.90
9564;DHT22;4820;50.870;4.702;2024-02-16T08:49:33;13.80;99.90
9564;DHT22;4820;50.870;4.702;2024-02-16T08:51:59;13.80;99.90
9564;DHT22;4820;50.870;4.702;2024-02-16T08:54:25;13.80;99.90
9564;DHT22;4820;50.870;4.702;2024-02-16T08:56:52;13.80;99.90
9564;DHT22;4820;50.870;4.702;2024-02-16T08:59:25;13.90;99.90
9564;DHT22;4820;50.870;4.702;2024-02-16T09:01:52;13.90;99.90
9564;DHT22;4820;50.870;4.702;2024-02-16T09:04:17;13.90;99.90
9564;DHT22;4820;50.870;4.702;2024-02-16T09:06:43;14.00;99.90
9564;DHT22;4820;50.870;4.702;2024-02-16T09:09:09;14.00;99.90
9564;DHT22;4820;50.870;4.702;2024-02-16T09:11:36;14.00;99.90
9564;DHT22;4820;50.870;4.702;2024-02-16T09:14:01;14.10;99.90
9564;DHT22;4820;50.870;4.702;2024-02-16T09:16:27;14.00;99.90
9564;DHT22;4820;50.870;4.702;2024-02-16T09:18:53;14.10;99.90
9564;DHT22;4820;50.870;4.702;2024-02-16T09:21:19;14.10;99.90
9564;DHT22;4820;50.870;4.702;2024-02-16T09:23:45;14.10;99.90
9564;DHT22;4820;50.870;4.702;2024-02-16T09:26:11;14.20;99.90
9564;DHT22;4820;50.870;4.702;2024-02-16T09:28:40;14.20;99.90
9564;DHT22;4820;50.870;4.702;2024-02-16T09:31:14;14.20;99.90
9564;DHT22;4820;50.870;4.702;2024-02-16T09:33:40;14.20;99.90
9564;DHT22;4820;50.870;4.702;2024-02-16T09:36:06;14.30;99.90
9564;DHT22;4820;50.870;4.702;2024-02-16T09:38:32;14.30;99.90
9564;DHT22;4820;50.870;4.702;2024-02-16T09:40:59;14.30;99.90
9564;DHT22;4820;50.870;4.702;2024-02-16T09:43:29;14.30;99.90
9564;DHT22;4820;50.870;4.702;2024-02-16T09:45:56;14.30;99.90
9564;DHT22;4820;50.870;4.702;2024-02-16T09:48:23;14.40;99.90
9564;DHT22;4820;50.870;4.702;2024-02-16T09:50:50;14.30;99.90
9564;DHT22;4820;50.870;4.702;2024-02-16T09:53:17;14.30;99.90
9564;DHT22;4820;50.870;4.702;2024-02-16T09:55:45;14.30;99.90
9564;DHT22;4820;50.870;4.702;2024-02-16T09:58:11;14.30;99.90
9564;DHT22;4820;50.870;4.702;2024-02-16T10:00:53;14.30;99.90
9564;DHT22;4820;50.870;4.702;2024-02-16T10:03:43;14.30;99.90
9564;DHT22;4820;50.870;4.702;2024-02-16T10:06:13;14.30;99.90
9564;DHT22;4820;50.870;4.702;2024-02-16T10:11:17;14.30;99.90
9564;DHT22;4820;50.870;4.702;2024-02-16T10:16:24;14.30;99.90
9564;DHT22;4820;50.870;4.702;2024-02-16T10:18:50;14.30;99.90
9564;DHT22;4820;50.870;4.702;2024-02-16T10:21:26;14.30;99.90
9564;DHT22;4820;50.870;4.702;2024-02-16T10:26:30;14.30;99.90
9564;DHT22;4820;50.870;4.702;2024-02-16T10:28:56;14.30;99.90
9564;DHT22;4820;50.870;4.702;2024-02-16T10:31:25;14.30;99.90
9564;DHT22;4820;50.870;4.702;2024-02-16T10:33:57;14.30;99.90
9564;DHT22;4820;50.870;4.702;2024-02-16T10:36:25;14.40;99.90
9564;DHT22;4820;50.870;4.702;2024-02-16T10:38:55;14.40;99.90
9564;DHT22;4820;50.870;4.702;2024-02-16T10:41:27;14.50;99.90
9564;DHT22;4820;50.870;4.702;2024-02-16T10:43:55;14.50;99.90
9564;DHT22;4820;50.870;4.702;2024-02-16T10:46:25;14.60;99.90
9564;DHT22;4820;50.870;4.702;2024-02-16T10:48:51;14.60;99.90
9564;DHT22;4820;50.870;4.702;2024-02-16T10:51:40;14.60;99.90
9564;DHT22;4820;50.870;4.702;2024-02-16T10:54:07;14.60;99.90
9564;DHT22;4820;50.870;4.702;2024-02-16T10:56:37;14.50;99.90
9564;DHT22;4820;50.870;4.702;2024-02-16T10:59:04;14.50;99.90
9564;DHT22;4820;50.870;4.702;2024-02-16T11:01:42;14.50;99.90
9564;DHT22;4820;50.870;4.702;2024-02-16T11:04:12;14.50;99.90
9564;DHT22;4820;50.870;4.702;2024-02-16T11:07:11;14.50;99.90
9564;DHT22;4820;50.870;4.702;2024-02-16T11:09:39;14.50;99.90
9564;DHT22;4820;50.870;4.702;2024-02-16T11:12:07;14.50;99.90
9564;DHT22;4820;50.870;4.702;2024-02-16T11:14:41;14.50;99.90
9564;DHT22;4820;50.870;4.702;2024-02-16T11:17:12;14.50;99.90
9564;DHT22;4820;50.870;4.702;2024-02-16T11:19:43;14.50;99.90
9564;DHT22;4820;50.870;4.702;2024-02-16T11:22:09;14.50;99.90
9564;DHT22;4820;50.870;4.702;2024-02-16T11:24:42;14.60;99.90
9564;DHT22;4820;50.870;4.702;2024-02-16T11:27:09;14.60;99.90
9564;DHT22;4820;50.870;4.702;2024-02-16T11:29:36;14.60;99.90
9564;DHT22;4820;50.870;4.702;2024-02-16T11:32:02;14.60;99.90
9564;DHT22;4820;50.870;4.702;2024-02-16T11:34:29;14.70;99.90
9564;DHT22;4820;50.870;4.702;2024-02-16T11:36:56;14.70;99.90
9564;DHT22;4820;50.870;4.702;2024-02-16T11:39:23;14.60;99.90
9564;DHT22;4820;50.870;4.702;2024-02-16T11:42:02;14.60;99.90
9564;DHT22;4820;50.870;4.702;2024-02-16T11:44:30;14.60;99.90
9564;DHT22;4820;50.870;4.702;2024-02-16T11:46:57;14.60;99.90
9564;DHT22;4820;50.870;4.702;2024-02-16T11:49:23;14.50;99.90
9564;DHT22;4820;50.870;4.702;2024-02-16T11:51:49;14.50;99.90
9564;DHT22;4820;50.870;4.702;2024-02-16T11:54:15;14.50;99.90
9564;DHT22;4820;50.870;4.702;2024-02-16T11:56:45;14.50;99.90
9564;DHT22;4820;50.870;4.702;2024-02-16T11:59:15;14.40;99.90
9564;DHT22;4820;50.870;4.702;2024-02-16T12:01:55;14.50;99.90
9564;DHT22;4820;50.870;4.702;2024-02-16T12:04:27;14.50;99.90
9564;DHT22;4820;50.870;4.702;2024-02-16T12:06:58;14.50;99.90
9564;DHT22;4820;50.870;4.702;2024-02-16T12:09:25;14.40;99.90
9564;DHT22;4820;50.870;4.702;2024-02-16T12:11:53;14.40;99.90
9564;DHT22;4820;50.870;4.702;2024-02-16T12:14:21;14.30;99.90
9564;DHT22;4820;50.870;4.702;2024-02-16T12:16:55;14.30;99.90
9564;DHT22;4820;50.870;4.702;2024-02-16T12:19:21;14.30;99.90
9564;DHT22;4820;50.870;4.702;2024-02-16T12:21:57;14.30;99.90
9564;DHT22;4820;50.870;4.702;2024-02-16T12:24:23;14.30;99.90
9564;DHT22;4820;50.870;4.702;2024-02-16T12:26:50;14.20;99.90
9564;DHT22;4820;50.870;4.702;2024-02-16T12:29:17;14.20;99.90
9564;DHT22;4820;50.870;4.702;2024-02-16T12:31:44;14.20;99.90
9564;DHT22;4820;50.870;4.702;2024-02-16T12:34:10;14.20;99.90
9564;DHT22;4820;50.870;4.702;2024-02-16T12:36:40;14.10;99.90
9564;DHT22;4820;50.870;4.702;2024-02-16T12:39:07;14.10;99.90
9564;DHT22;4820;50.870;4.702;2024-02-16T12:41:34;14.10;99.90
9564;DHT22;4820;50.870;4.702;2024-02-16T12:44:01;14.10;99.90
9564;DHT22;4820;50.870;4.702;2024-02-16T12:46:27;14.00;99.90
9564;DHT22;4820;50.870;4.702;2024-02-16T12:48:56;14.00;99.90
9564;DHT22;4820;50.870;4.702;2024-02-16T12:51:23;13.90;99.90
9564;DHT22;4820;50.870;4.702;2024-02-16T12:53:49;13.90;99.90
9564;DHT22;4820;50.870;4.702;2024-02-16T12:56:21;13.90;99.90
9564;DHT22;4820;50.870;4.702;2024-02-16T12:58:50;13.90;99.90
9564;DHT22;4820;50.870;4.702;2024-02-16T13:01:15;13.90;99.90
9564;DHT22;4820;50.870;4.702;2024-02-16T13:03:44;13.80;99.90
9564;DHT22;4820;50.870;4.702;2024-02-16T13:06:10;13.80;99.90
9564;DHT22;4820;50.870;4.702;2024-02-16T13:08:37;13.70;99.90
9564;DHT22;4820;50.870;4.702;2024-02-16T13:11:03;13.60;99.90
9564;DHT22;4820;50.870;4.702;2024-02-16T13:13:29;13.60;99.90
9564;DHT22;4820;50.870;4.702;2024-02-16T13:15:54;13.60;99.90
9564;DHT22;4820;50.870;4.702;2024-02-16T13:18:21;13.50;99.90
9564;DHT22;4820;50.870;4.702;2024-02-16T13:20:47;13.50;99.90
9564;DHT22;4820;50.870;4.702;2024-02-16T13:23:13;13.60;99.90
9564;DHT22;4820;50.870;4.702;2024-02-16T13:25:38;13.60;99.90
9564;DHT22;4820;50.870;4.702;2024-02-16T13:28:04;13.60;99.90
9564;DHT22;4820;50.870;4.702;2024-02-16T13:30:30;13.60;99.90
9564;DHT22;4820;50.870;4.702;2024-02-16T13:32:56;13.70;99.90
9564;DHT22;4820;50.870;4.702;2024-02-16T13:35:23;13.60;99.90
9564;DHT22;4820;50.870;4.702;2024-02-16T13:37:49;13.70;99.90
9564;DHT22;4820;50.870;4.702;2024-02-16T13:40:16;13.70;99.90
9564;DHT22;4820;50.870;4.702;2024-02-16T13:42:43;13.80;99.90
9564;DHT22;4820;50.870;4.702;2024-02-16T13:45:09;13.80;99.90
9564;DHT22;4820;50.870;4.702;2024-02-16T13:47:35;13.80;99.90
9564;DHT22;4820;50.870;4.702;2024-02-16T13:50:01;13.80;99.90
9564;DHT22;4820;50.870;4.702;2024-02-16T13:52:27;13.90;99.90
9564;DHT22;4820;50.870;4.702;2024-02-16T13:54:53;13.80;99.90
9564;DHT22;4820;50.870;4.702;2024-02-16T13:57:19;13.90;99.90
9564;DHT22;4820;50.870;4.702;2024-02-16T13:59:46;14.00;99.90
9564;DHT22;4820;50.870;4.702;2024-02-16T14:02:12;14.00;99.90
9564;DHT22;4820;50.870;4.702;2024-02-16T14:04:38;14.10;99.90
9564;DHT22;4820;50.870;4.702;2024-02-16T14:07:04;14.10;99.90
9564;DHT22;4820;50.870;4.702;2024-02-16T14:09:30;14.20;99.90
9564;DHT22;4820;50.870;4.702;2024-02-16T14:11:55;14.20;99.90
9564;DHT22;4820;50.870;4.702;2024-02-16T14:14:24;14.20;99.90
9564;DHT22;4820;50.870;4.702;2024-02-16T14:16:50;14.30;99.90
9564;DHT22;4820;50.870;4.702;2024-02-16T14:19:17;14.30;99.90
9564;DHT22;4820;50.870;4.702;2024-02-16T14:21:46;14.30;99.90
9564;DHT22;4820;50.870;4.702;2024-02-16T14:24:15;14.30;99.90
9564;DHT22;4820;50.870;4.702;2024-02-16T14:26:44;14.30;99.90
9564;DHT22;4820;50.870;4.702;2024-02-16T14:29:09;14.30;99.90
9564;DHT22;4820;50.870;4.702;2024-02-16T14:31:36;14.30;99.90
9564;DHT22;4820;50.870;4.702;2024-02-16T14:34:01;14.20;99.90
9564;DHT22;4820;50.870;4.702;2024-02-16T14:36:27;14.30;99.90
9564;DHT22;4820;50.870;4.702;2024-02-16T14:38:53;14.30;99.90
9564;DHT22;4820;50.870;4.702;2024-02-16T14:41:19;14.30;99.90
9564;DHT22;4820;50.870;4.702;2024-02-16T14:43:44;14.30;99.90
9564;DHT22;4820;50.870;4.702;2024-02-16T14:46:10;14.30;99.90
9564;DHT22;4820;50.870;4.702;2024-02-16T14:48:36;14.30;99.90
9564;DHT22;4820;50.870;4.702;2024-02-16T14:51:02;14.30;99.90
9564;DHT22;4820;50.870;4.702;2024-02-16T14:53:29;14.30;99.90
9564;DHT22;4820;50.870;4.702;2024-02-16T14:55:56;14.30;99.90
9564;DHT22;4820;50.870;4.702;2024-02-16T14:58:21;14.20;99.90
9564;DHT22;4820;50.870;4.702;2024-02-16T15:00:47;14.20;99.90
9564;DHT22;4820;50.870;4.702;2024-02-16T15:03:14;14.10;99.90
9564;DHT22;4820;50.870;4.702;2024-02-16T15:05:41;14.10;99.90
9564;DHT22;4820;50.870;4.702;2024-02-16T15:08:06;14.10;99.90
9564;DHT22;4820;50.870;4.702;2024-02-16T15:10:32;14.10;99.90
9564;DHT22;4820;50.870;4.702;2024-02-16T15:12:59;14.10;99.90
9564;DHT22;4820;50.870;4.702;2024-02-16T15:15:24;14.10;99.90
9564;DHT22;4820;50.870;4.702;2024-02-16T15:17:50;14.20;99.90
9564;DHT22;4820;50.870;4.702;2024-02-16T15:20:16;14.20;99.90
9564;DHT22;4820;50.870;4.702;2024-02-16T15:22:42;14.20;99.90
9564;DHT22;4820;50.870;4.702;2024-02-16T15:25:08;14.30;99.90
9564;DHT22;4820;50.870;4.702;2024-02-16T15:27:34;14.30;99.90
9564;DHT22;4820;50.870;4.702;2024-02-16T15:30:01;14.30;99.90
9564;DHT22;4820;50.870;4.702;2024-02-16T15:32:27;14.40;99.90
9564;DHT22;4820;50.870;4.702;2024-02-16T15:34:54;14.40;99.90
9564;DHT22;4820;50.870;4.702;2024-02-16T15:37:20;14.50;99.90
9564;DHT22;4820;50.870;4.702;2024-02-16T15:39:47;14.40;99.90
9564;DHT22;4820;50.870;4.702;2024-02-16T15:42:18;14.40;99.90
9564;DHT22;4820;50.870;4.702;2024-02-16T15:44:44;14.50;99.90
9564;DHT22;4820;50.870;4.702;2024-02-16T15:47:10;14.50;99.90
9564;DHT22;4820;50.870;4.702;2024-02-16T15:49:38;14.50;99.90
9564;DHT22;4820;50.870;4.702;2024-02-16T15:52:04;14.40;99.90
9564;DHT22;4820;50.870;4.702;2024-02-16T15:54:30;14.30;99.90
9564;DHT22;4820;50.870;4.702;2024-02-16T15:56:55;14.30;99.90
9564;DHT22;4820;50.870;4.702;2024-02-16T15:59:21;14.30;99.90
9564;DHT22;4820;50.870;4.702;2024-02-16T16:01:47;14.20;99.90
9564;DHT22;4820;50.870;4.702;2024-02-16T16:04:16;14.20;99.90
9564;DHT22;4820;50.870;4.702;2024-02-16T16:06:41;14.10;99.90
9564;DHT22;4820;50.870;4.702;2024-02-16T16:09:08;14.10;99.90
9564;DHT22;4820;50.870;4.702;2024-02-16T16:11:34;14.00;99.90
9564;DHT22;4820;50.870;4.702;2024-02-16T16:14:00;14.00;99.90
9564;DHT22;4820;50.870;4.702;2024-02-16T16:16:26;13.90;99.90
9564;DHT22;4820;50.870;4.702;2024-02-16T16:18:52;14.00;99.90
9564;DHT22;4820;50.870;4.702;2024-02-16T16:21:21;14.00;99.90
9564;DHT22;4820;50.870;4.702;2024-02-16T16:23:47;14.00;99.90
9564;DHT22;4820;50.870;4.702;2024-02-16T16:26:13;13.90;99.90
9564;DHT22;4820;50.870;4.702;2024-02-16T16:28:38;14.00;99.90
9564;DHT22;4820;50.870;4.702;2024-02-16T16:31:04;13.90;99.90
9564;DHT22;4820;50.870;4.702;2024-02-16T16:33:30;13.90;99.90
9564;DHT22;4820;50.870;4.702;2024-02-16T16:35:55;13.90;99.90
9564;DHT22;4820;50.870;4.702;2024-02-16T16:38:21;13.80;99.90
9564;DHT22;4820;50.870;4.702;2024-02-16T16:40:47;13.80;99.90
9564;DHT22;4820;50.870;4.702;2024-02-16T16:43:13;13.80;99.90
9564;DHT22;4820;50.870;4.702;2024-02-16T16:45:38;13.90;99.90